Time;durP1;ratioP1;P1;durP2;ratioP2;P2;SDS_P1;SDS_P2;PMS_P1;PMS_P2;Temp;Humidity;BMP_temperature;BMP_pressure;BME280_temperature;BME280_humidity;BME280_pressure;Samples;Min_cycle;Max_cycle;Signal;HPM_P1;HPM_P2
2021/10/13 00:00:03;;;;;;;4.47;2.08;;;10.50;99.90;;;;;;4135643;28;20046;-76
2021/10/13 00:02:03;;;;;;;;;;;10.60;99.90;;;;;;4135311;28;20117;-76
2021/10/13 00:04:04;;;;;;;4.05;1.80;;;10.60;99.90;;;;;;4132402;28;19960;-76
2021/10/13 00:06:05;;;;;;;3.72;1.90;;;10.60;99.90;;;;;;4116943;28;20089;-76
2021/10/13 00:08:05;;;;;;;6.55;1.70;;;10.60;99.90;;;;;;4132929;28;20099;-76
2021/10/13 00:10:06;;;;;;;4.22;1.77;;;10.60;99.90;;;;;;4134460;28;20042;-76
2021/10/13 00:12:07;;;;;;;3.50;1.67;;;10.60;99.90;;;;;;4136562;28;20040;-76
2021/10/13 00:14:08;;;;;;;5.22;2.05;;;10.60;99.90;;;;;;4134699;28;20490;-76
2021/10/13 00:16:09;;;;;;;3.40;1.83;;;10.60;99.90;;;;;;4138218;28;20076;-76
2021/10/13 00:18:10;;;;;;;3.53;1.58;;;10.50;99.90;;;;;;4138533;28;20046;-76
2021/10/13 00:20:11;;;;;;;5.88;1.70;;;10.50;99.90;;;;;;4135570;28;20100;-76
2021/10/13 00:22:11;;;;;;;4.15;1.60;;;10.50;99.90;;;;;;4139678;28;20043;-76
2021/10/13 00:24:12;;;;;;;3.05;1.88;;;10.50;99.90;;;;;;4135536;28;20059;-76
2021/10/13 00:26:13;;;;;;;4.68;1.75;;;10.50;99.90;;;;;;4137759;28;20069;-76
2021/10/13 00:28:13;;;;;;;4.78;1.60;;;10.50;99.90;;;;;;4138488;28;20054;-76
2021/10/13 00:30:14;;;;;;;5.65;1.63;;;10.60;99.90;;;;;;4137088;28;20026;-76
2021/10/13 00:32:14;;;;;;;6.07;1.75;;;10.50;99.90;;;;;;4135465;28;20053;-76
2021/10/13 00:34:16;;;;;;;3.15;1.60;;;10.50;99.90;;;;;;4139072;28;20038;-75
2021/10/13 00:36:16;;;;;;;3.85;1.60;;;10.50;99.90;;;;;;4137190;28;20041;-76
2021/10/13 00:38:17;;;;;;;2.95;1.67;;;10.50;99.90;;;;;;4139022;28;20037;-76
2021/10/13 00:40:17;;;;;;;5.10;1.60;;;10.50;99.90;;;;;;4137887;28;20041;-76
2021/10/13 00:42:18;;;;;;;5.13;1.70;;;10.50;99.90;;;;;;4138800;28;20040;-76
2021/10/13 00:44:19;;;;;;;2.88;1.55;;;10.50;99.90;;;;;;4132985;28;20053;-76
2021/10/13 00:46:20;;;;;;;3.92;1.50;;;10.50;99.90;;;;;;4136470;28;20034;-76
2021/10/13 00:48:20;;;;;;;3.17;1.40;;;10.50;99.90;;;;;;4136478;28;20105;-76
2021/10/13 00:50:22;;;;;;;4.28;1.83;;;10.50;99.90;;;;;;4134485;28;20121;-76
2021/10/13 00:52:23;;;;;;;4.13;1.83;;;10.50;99.90;;;;;;4136070;28;20064;-76
2021/10/13 00:54:24;;;;;;;4.80;1.60;;;10.50;99.90;;;;;;4131893;28;20140;-76
2021/10/13 00:56:25;;;;;;;2.65;1.52;;;10.50;99.90;;;;;;4133775;28;20034;-76
2021/10/13 00:58:26;;;;;;;3.10;1.58;;;10.50;99.90;;;;;;4139266;28;20061;-76
2021/10/13 01:00:28;;;;;;;2.03;1.50;;;10.50;99.90;;;;;;4135739;28;20124;-76
2021/10/13 01:02:32;;;;;;;6.77;1.63;;;10.50;99.90;;;;;;4138777;28;20065;-76
2021/10/13 01:05:02;;;;;;;2.75;1.40;;;10.50;99.90;;;;;;4136370;28;20551;-76
2021/10/13 01:07:24;;;;;;;3.13;1.75;;;10.50;99.90;;;;;;4138375;28;20060;-76
2021/10/13 01:09:31;;;;;;;5.00;1.90;;;10.50;99.90;;;;;;4136645;28;20120;-76
2021/10/13 01:11:49;;;;;;;3.55;1.45;;;10.50;99.90;;;;;;4133585;28;20265;-75
2021/10/13 01:14:07;;;;;;;4.03;1.70;;;10.40;99.90;;;;;;4136544;28;20131;-76
2021/10/13 01:16:42;;;;;;;4.20;1.65;;;10.40;99.90;;;;;;4136271;28;20477;-76
2021/10/13 01:19:01;;;;;;;4.85;1.80;;;10.40;99.90;;;;;;4137565;28;20717;-76
2021/10/13 01:21:41;;;;;;;3.97;1.60;;;10.40;99.90;;;;;;4131285;28;20022;-76
2021/10/13 01:24:13;;;;;;;3.42;1.67;;;10.30;99.90;;;;;;4129985;28;20124;-76
2021/10/13 01:26:34;;;;;;;3.33;1.60;;;10.40;99.90;;;;;;4133470;28;20096;-75
2021/10/13 01:28:38;;;;;;;3.58;1.83;;;10.30;99.90;;;;;;4117964;28;20054;-76
2021/10/13 01:30:58;;;;;;;2.70;1.58;;;10.30;99.90;;;;;;4134646;28;20045;-76
2021/10/13 01:33:06;;;;;;;3.80;2.03;;;10.40;99.90;;;;;;4135458;28;20742;-76
2021/10/13 01:35:08;;;;;;;4.57;2.00;;;10.30;99.90;;;;;;4138643;28;20508;-76
2021/10/13 01:37:15;;;;;;;3.10;1.60;;;10.30;99.90;;;;;;4136082;28;20034;-76
2021/10/13 01:39:16;;;;;;;3.22;1.75;;;10.30;99.90;;;;;;4136104;28;20032;-76
2021/10/13 01:41:19;;;;;;;2.35;1.27;;;10.30;99.90;;;;;;4138236;28;20109;-76
2021/10/13 01:43:21;;;;;;;2.90;1.30;;;10.30;99.90;;;;;;4135682;28;20590;-76
2021/10/13 01:45:23;;;;;;;3.03;1.58;;;10.30;99.90;;;;;;4123562;28;20039;-76
2021/10/13 01:47:25;;;;;;;4.55;1.65;;;10.30;99.90;;;;;;4131268;28;20156;-76
2021/10/13 01:49:30;;;;;;;2.95;1.63;;;10.30;99.90;;;;;;4140130;28;20026;-76
2021/10/13 01:51:33;;;;;;;3.00;1.75;;;10.20;99.90;;;;;;4134874;28;20781;-76
2021/10/13 01:53:33;;;;;;;;;;;10.20;99.90;;;;;;4137466;28;20056;-76
2021/10/13 01:55:34;;;;;;;2.97;1.67;;;10.30;99.90;;;;;;4134165;28;19909;-76
2021/10/13 01:57:36;;;;;;;4.75;2.05;;;10.20;99.90;;;;;;4138495;28;20049;-76
2021/10/13 01:59:40;;;;;;;3.28;1.50;;;10.20;99.90;;;;;;4132024;28;20046;-76
2021/10/13 02:01:42;;;;;;;4.15;1.75;;;10.20;99.90;;;;;;4137348;28;20038;-76
2021/10/13 02:03:45;;;;;;;2.92;1.60;;;10.20;99.90;;;;;;4135248;28;20042;-76
2021/10/13 02:05:48;;;;;;;4.00;1.63;;;10.20;99.90;;;;;;4137428;28;20114;-76
2021/10/13 02:07:48;;;;;;;;;;;10.20;99.90;;;;;;4138785;28;20049;-76
2021/10/13 02:09:52;;;;;;;6.18;2.10;;;10.20;99.90;;;;;;4138626;28;19909;-76
2021/10/13 02:11:56;;;;;;;2.08;1.42;;;10.20;99.90;;;;;;4124759;28;20099;-76
2021/10/13 02:14:04;;;;;;;3.35;1.65;;;10.20;99.90;;;;;;4129467;28;20041;-76
2021/10/13 02:16:06;;;;;;;3.22;1.48;;;10.20;99.90;;;;;;4131141;28;20034;-76
2021/10/13 02:18:12;;;;;;;3.63;1.83;;;10.20;99.90;;;;;;4138584;28;20117;-76
2021/10/13 02:20:14;;;;;;;3.92;1.80;;;10.20;99.90;;;;;;4118388;28;20094;-76
2021/10/13 02:22:17;;;;;;;3.50;1.77;;;10.20;99.90;;;;;;4128762;28;20050;-76
2021/10/13 02:24:36;;;;;;;4.32;1.85;;;10.10;99.90;;;;;;4136603;28;20044;-76
2021/10/13 02:26:42;;;;;;;3.90;1.90;;;10.10;99.90;;;;;;4122175;28;20061;-76
2021/10/13 02:28:47;;;;;;;4.38;1.80;;;10.10;99.90;;;;;;4134967;28;20479;-76
2021/10/13 02:30:48;;;;;;;2.83;1.88;;;10.10;99.90;;;;;;4135307;28;20034;-76
2021/10/13 02:32:49;;;;;;;3.55;1.80;;;10.10;99.90;;;;;;4134568;28;20029;-76
2021/10/13 02:34:51;;;;;;;3.35;1.95;;;10.10;99.90;;;;;;4135650;28;20038;-76
2021/10/13 02:36:51;;;;;;;2.70;1.60;;;10.10;99.90;;;;;;4134725;28;20039;-76
2021/10/13 02:38:52;;;;;;;2.22;1.67;;;10.10;99.90;;;;;;4135478;28;20026;-75
2021/10/13 02:40:52;;;;;;;4.18;1.80;;;10.10;99.90;;;;;;4135574;28;20458;-75
2021/10/13 02:42:53;;;;;;;2.72;1.77;;;10.10;99.90;;;;;;4119948;28;20053;-75
2021/10/13 02:44:54;;;;;;;8.18;2.20;;;10.10;99.90;;;;;;4137250;28;20107;-75
2021/10/13 02:47:08;;;;;;;3.72;1.80;;;10.10;99.90;;;;;;4134428;28;20053;-76
2021/10/13 02:49:25;;;;;;;3.78;2.03;;;10.10;99.90;;;;;;4132980;28;20034;-76
2021/10/13 02:52:07;;;;;;;3.92;2.10;;;10.00;99.90;;;;;;4134725;28;20041;-76
2021/10/13 02:54:16;;;;;;;2.92;1.73;;;10.00;99.90;;;;;;4121138;28;20038;-75
2021/10/13 02:56:28;;;;;;;3.40;1.95;;;10.00;99.90;;;;;;4137463;28;20060;-76
2021/10/13 02:58:39;;;;;;;6.78;2.10;;;10.00;99.90;;;;;;4133783;28;20036;-76
2021/10/13 03:00:42;;;;;;;3.83;1.90;;;10.00;99.90;;;;;;4137720;28;20123;-76
2021/10/13 03:02:54;;;;;;;5.03;2.35;;;10.00;99.90;;;;;;4133933;28;20042;-76
2021/10/13 03:04:59;;;;;;;4.35;2.33;;;10.00;99.90;;;;;;4134895;28;20030;-75
2021/10/13 03:07:11;;;;;;;3.38;2.20;;;10.00;99.90;;;;;;4137327;28;20042;-75
2021/10/13 03:09:13;;;;;;;3.17;1.95;;;10.00;99.90;;;;;;4134906;28;20758;-76
2021/10/13 03:11:16;;;;;;;3.25;2.10;;;10.00;99.90;;;;;;4136917;28;20054;-75
2021/10/13 03:13:22;;;;;;;4.30;2.35;;;10.00;99.90;;;;;;4134924;28;20054;-75
2021/10/13 03:15:25;;;;;;;3.80;1.75;;;10.00;99.90;;;;;;4133365;28;20049;-76
2021/10/13 03:17:26;;;;;;;2.47;1.75;;;10.00;99.90;;;;;;4134296;28;20061;-76
2021/10/13 03:19:28;;;;;;;4.00;2.17;;;10.00;99.90;;;;;;4135395;28;20065;-76
2021/10/13 03:21:29;;;;;;;5.25;2.45;;;9.90;99.90;;;;;;4133568;28;20030;-76
2021/10/13 03:23:30;;;;;;;4.65;1.98;;;10.00;99.90;;;;;;4132434;28;20033;-75
2021/10/13 03:25:32;;;;;;;4.82;2.20;;;10.00;99.90;;;;;;4136941;28;20065;-75
2021/10/13 03:27:33;;;;;;;3.63;2.25;;;10.00;99.90;;;;;;4135426;28;20057;-75
2021/10/13 03:29:38;;;;;;;4.50;2.22;;;10.00;99.90;;;;;;4135517;28;20030;-75
2021/10/13 03:31:40;;;;;;;5.13;2.45;;;10.00;99.90;;;;;;4131258;28;20496;-75
2021/10/13 03:33:46;;;;;;;5.15;2.22;;;10.00;99.90;;;;;;4137602;28;20650;-76
2021/10/13 03:35:47;;;;;;;3.40;1.83;;;10.00;99.90;;;;;;4133332;28;20069;-75
2021/10/13 03:37:47;;;;;;;3.80;2.40;;;10.00;99.90;;;;;;4133465;28;20088;-76
2021/10/13 03:39:49;;;;;;;3.35;2.17;;;10.00;99.90;;;;;;4131549;28;20101;-75
2021/10/13 03:41:50;;;;;;;4.95;2.38;;;10.00;99.90;;;;;;4136647;28;20041;-75
2021/10/13 03:43:50;;;;;;;5.18;2.03;;;10.00;99.90;;;;;;4135910;28;20120;-75
2021/10/13 03:45:51;;;;;;;3.33;2.08;;;10.10;99.90;;;;;;4134365;28;21015;-75
2021/10/13 03:47:53;;;;;;;5.97;2.28;;;10.10;99.90;;;;;;4134845;28;20092;-75
2021/10/13 03:49:53;;;;;;;4.13;2.00;;;10.10;99.90;;;;;;4135132;28;20030;-76
2021/10/13 03:51:54;;;;;;;3.10;1.95;;;10.10;99.90;;;;;;4131058;28;20040;-75
2021/10/13 03:53:55;;;;;;;4.03;1.95;;;10.10;99.90;;;;;;4136429;28;20042;-76
2021/10/13 03:55:55;;;;;;;3.80;2.00;;;10.20;99.90;;;;;;4132232;28;20054;-75
2021/10/13 03:57:56;;;;;;;4.95;2.13;;;10.10;99.90;;;;;;4136430;28;20429;-75
2021/10/13 03:59:56;;;;;;;4.82;2.08;;;10.20;99.90;;;;;;4133934;28;20026;-75
2021/10/13 04:01:57;;;;;;;5.40;2.47;;;10.10;99.90;;;;;;4137293;28;20042;-75
2021/10/13 04:03:57;;;;;;;5.45;2.10;;;10.20;99.90;;;;;;4135693;28;20065;-75
2021/10/13 04:05:58;;;;;;;3.08;2.20;;;10.10;99.90;;;;;;4132463;28;20030;-75
2021/10/13 04:07:59;;;;;;;4.15;2.35;;;10.10;99.90;;;;;;4134505;28;20029;-74
2021/10/13 04:10:00;;;;;;;4.40;1.88;;;10.10;99.90;;;;;;4135870;28;20034;-76
2021/10/13 04:12:00;;;;;;;4.75;2.13;;;10.10;99.90;;;;;;4134450;28;20029;-75
2021/10/13 04:14:01;;;;;;;8.35;2.22;;;10.10;99.90;;;;;;4133501;28;20129;-75
2021/10/13 04:16:02;;;;;;;4.53;2.17;;;10.10;99.90;;;;;;4134489;28;20030;-76
2021/10/13 04:18:04;;;;;;;3.92;2.17;;;10.20;99.90;;;;;;4135366;28;20093;-75
2021/10/13 04:20:08;;;;;;;7.18;2.58;;;10.10;99.90;;;;;;4133331;28;20038;-76
2021/10/13 04:22:09;;;;;;;3.65;2.00;;;10.10;99.90;;;;;;4135543;28;20030;-75
2021/10/13 04:24:09;;;;;;;2.25;1.80;;;10.20;99.90;;;;;;4137727;28;20165;-75
2021/10/13 04:26:10;;;;;;;4.18;2.22;;;10.10;99.90;;;;;;4132550;28;20065;-75
2021/10/13 04:28:11;;;;;;;4.90;2.05;;;10.10;99.90;;;;;;4136212;28;20026;-75
2021/10/13 04:30:11;;;;;;;4.85;2.17;;;10.10;99.90;;;;;;4131268;28;20041;-75
2021/10/13 04:32:12;;;;;;;2.90;2.03;;;10.10;99.90;;;;;;4136479;28;20510;-76
2021/10/13 04:34:12;;;;;;;4.72;2.25;;;10.10;99.90;;;;;;4137801;28;20127;-75
2021/10/13 04:36:13;;;;;;;6.40;2.28;;;10.10;99.90;;;;;;4135154;28;20045;-75
2021/10/13 04:38:14;;;;;;;5.47;2.17;;;10.10;99.90;;;;;;4133552;28;20046;-75
2021/10/13 04:40:14;;;;;;;5.53;2.45;;;10.10;99.90;;;;;;4136750;28;20034;-75
2021/10/13 04:42:15;;;;;;;4.80;2.22;;;10.10;99.90;;;;;;4137445;28;20042;-75
2021/10/13 04:44:16;;;;;;;3.40;1.95;;;10.10;99.90;;;;;;4134741;28;20034;-75
2021/10/13 04:46:16;;;;;;;3.35;2.00;;;10.10;99.90;;;;;;4137312;28;20379;-75
2021/10/13 04:48:17;;;;;;;3.65;1.90;;;10.00;99.90;;;;;;4135219;28;20521;-75
2021/10/13 04:50:17;;;;;;;4.88;2.38;;;10.10;99.90;;;;;;4134833;28;20085;-75
2021/10/13 04:52:18;;;;;;;2.97;1.88;;;10.00;99.90;;;;;;4136361;28;20038;-75
2021/10/13 04:54:19;;;;;;;5.15;2.17;;;10.00;99.90;;;;;;4132726;28;20030;-76
2021/10/13 04:56:20;;;;;;;4.40;2.38;;;10.00;99.90;;;;;;4136466;28;20092;-75
2021/10/13 04:58:20;;;;;;;5.18;2.58;;;10.00;99.90;;;;;;4131534;28;20049;-75
2021/10/13 05:00:21;;;;;;;4.07;2.30;;;10.00;99.90;;;;;;4133402;28;20038;-75
2021/10/13 05:02:22;;;;;;;5.97;2.53;;;10.00;99.90;;;;;;4117599;28;20038;-75
2021/10/13 05:04:22;;;;;;;4.75;2.42;;;9.90;99.90;;;;;;4136498;28;20054;-75
2021/10/13 05:06:23;;;;;;;5.25;2.50;;;10.00;99.90;;;;;;4134785;28;20042;-75
2021/10/13 05:08:24;;;;;;;5.30;2.50;;;9.90;99.90;;;;;;4135603;28;20034;-75
2021/10/13 05:10:24;;;;;;;3.65;1.98;;;9.90;99.90;;;;;;4137533;28;20033;-75
2021/10/13 05:12:25;;;;;;;7.93;2.85;;;9.90;99.90;;;;;;4139668;28;20068;-75
2021/10/13 05:14:25;;;;;;;4.05;2.58;;;9.90;99.90;;;;;;4138950;28;20045;-75
2021/10/13 05:16:26;;;;;;;4.32;2.63;;;9.90;99.90;;;;;;4136933;28;20030;-75
2021/10/13 05:18:27;;;;;;;4.18;2.38;;;9.90;99.90;;;;;;4138932;28;20034;-75
2021/10/13 05:20:27;;;;;;;5.72;2.33;;;9.90;99.90;;;;;;4140290;28;20512;-75
2021/10/13 05:22:28;;;;;;;5.05;2.65;;;9.90;99.90;;;;;;4136544;28;20037;-75
2021/10/13 05:24:29;;;;;;;4.68;2.63;;;9.90;99.90;;;;;;4133103;28;20033;-75
2021/10/13 05:26:29;;;;;;;5.43;2.25;;;9.90;99.90;;;;;;4138781;28;20031;-75
2021/10/13 05:28:30;;;;;;;4.50;2.88;;;9.90;99.90;;;;;;4137589;28;20689;-75
2021/10/13 05:30:30;;;;;;;6.28;2.85;;;9.90;99.90;;;;;;4137672;28;20053;-76
2021/10/13 05:32:31;;;;;;;5.45;2.60;;;9.80;99.90;;;;;;4142244;28;20097;-78
2021/10/13 05:34:32;;;;;;;5.15;2.70;;;9.90;99.90;;;;;;4103998;28;20027;-78
2021/10/13 05:36:32;;;;;;;6.28;2.80;;;9.80;99.90;;;;;;4144277;28;20061;-78
2021/10/13 05:38:33;;;;;;;5.80;2.78;;;9.80;99.90;;;;;;4137319;28;20464;-78
2021/10/13 05:40:41;;;;;;;6.00;2.97;;;9.80;99.90;;;;;;4140684;28;20062;-78
2021/10/13 05:42:41;;;;;;;6.13;2.53;;;9.80;99.90;;;;;;4138716;28;20557;-75
2021/10/13 05:44:42;;;;;;;4.43;2.83;;;9.90;99.90;;;;;;4135353;28;20030;-73
2021/10/13 05:46:42;;;;;;;4.40;2.53;;;9.90;99.90;;;;;;4142393;28;20084;-73
2021/10/13 05:48:43;;;;;;;4.78;2.58;;;9.90;99.90;;;;;;4132606;28;20034;-73
2021/10/13 05:50:44;;;;;;;6.00;2.65;;;9.90;99.90;;;;;;4132405;28;21499;-73
2021/10/13 05:52:44;;;;;;;5.72;2.90;;;9.90;99.90;;;;;;4140586;28;20034;-73
2021/10/13 05:54:45;;;;;;;4.25;2.42;;;9.90;99.90;;;;;;4140389;28;20038;-73
2021/10/13 05:56:50;;;;;;;4.28;2.17;;;9.90;99.90;;;;;;4135728;28;20041;-73
2021/10/13 05:58:53;;;;;;;4.20;2.47;;;10.00;99.90;;;;;;4137090;28;20038;-73
2021/10/13 06:00:54;;;;;;;6.60;3.13;;;10.00;99.90;;;;;;4126886;28;20018;-73
2021/10/13 06:02:56;;;;;;;6.10;2.88;;;10.00;99.90;;;;;;4138456;28;20102;-73
2021/10/13 06:04:56;;;;;;;4.68;2.63;;;10.00;99.90;;;;;;4132695;28;20117;-74
2021/10/13 06:06:57;;;;;;;5.85;2.72;;;10.00;99.90;;;;;;4138069;28;20034;-73
2021/10/13 06:08:58;;;;;;;5.03;2.55;;;10.00;99.90;;;;;;4136259;28;20084;-74
2021/10/13 06:10:59;;;;;;;3.40;2.22;;;10.10;99.90;;;;;;4137616;28;20111;-73
2021/10/13 06:12:59;;;;;;;3.50;2.30;;;10.10;99.90;;;;;;4129585;28;20121;-74
2021/10/13 06:15:00;;;;;;;6.90;3.00;;;10.10;99.90;;;;;;4135958;28;20030;-74
2021/10/13 06:17:01;;;;;;;4.18;2.35;;;10.10;99.90;;;;;;4133237;28;20104;-73
2021/10/13 06:19:01;;;;;;;5.32;2.47;;;10.10;99.90;;;;;;4144689;28;20025;-73
2021/10/13 06:21:02;;;;;;;5.25;2.70;;;10.10;99.90;;;;;;4137388;28;20782;-74
2021/10/13 06:23:03;;;;;;;4.57;2.75;;;10.10;99.90;;;;;;4131980;28;20042;-74
2021/10/13 06:25:06;;;;;;;6.65;3.15;;;10.10;99.90;;;;;;4127127;28;20037;-73
2021/10/13 06:27:07;;;;;;;6.88;3.20;;;10.10;99.90;;;;;;4135924;28;20133;-73
2021/10/13 06:29:09;;;;;;;4.53;2.85;;;10.10;99.90;;;;;;4129982;28;20065;-74
2021/10/13 06:31:10;;;;;;;4.47;2.90;;;10.10;99.90;;;;;;4130590;28;20030;-74
2021/10/13 06:33:10;;;;;;;5.63;2.83;;;10.10;99.90;;;;;;4134200;28;20722;-74
2021/10/13 06:35:11;;;;;;;5.53;3.38;;;10.10;99.90;;;;;;4136875;28;20038;-73
2021/10/13 06:37:12;;;;;;;7.05;2.90;;;10.10;99.90;;;;;;4140443;28;20034;-74
2021/10/13 06:39:12;;;;;;;4.93;2.60;;;10.10;99.90;;;;;;4135154;28;20085;-73
2021/10/13 06:41:13;;;;;;;5.72;3.08;;;10.20;99.90;;;;;;4111909;28;20034;-73
2021/10/13 06:43:15;;;;;;;3.95;2.72;;;10.20;99.90;;;;;;4142049;28;20057;-73
2021/10/13 06:45:16;;;;;;;7.68;2.85;;;10.20;99.90;;;;;;4127721;28;20042;-73
2021/10/13 06:47:17;;;;;;;7.47;3.22;;;10.20;99.90;;;;;;4138382;28;20033;-73
2021/10/13 06:49:17;;;;;;;7.65;2.92;;;10.20;99.90;;;;;;4138754;28;20038;-73
2021/10/13 06:51:18;;;;;;;5.32;2.53;;;10.30;99.90;;;;;;4139501;28;20092;-73
2021/10/13 06:53:19;;;;;;;7.32;3.33;;;10.30;99.90;;;;;;4137251;28;20493;-73
2021/10/13 06:55:19;;;;;;;4.90;3.08;;;10.30;99.90;;;;;;4141001;28;20521;-73
2021/10/13 06:57:20;;;;;;;4.95;2.80;;;10.30;99.90;;;;;;4112517;28;20039;-73
2021/10/13 06:59:21;;;;;;;7.03;3.13;;;10.30;99.90;;;;;;4133760;28;20046;-73
2021/10/13 07:01:21;;;;;;;7.20;3.30;;;10.30;99.90;;;;;;4132565;28;20355;-73
2021/10/13 07:03:22;;;;;;;8.05;3.30;;;10.30;99.90;;;;;;4144226;28;20057;-73
2021/10/13 07:05:22;;;;;;;7.95;3.95;;;10.40;99.90;;;;;;4141345;28;20069;-74
2021/10/13 07:07:23;;;;;;;8.20;4.70;;;10.40;99.90;;;;;;4143618;28;20037;-74
2021/10/13 07:09:24;;;;;;;10.20;5.20;;;10.40;99.90;;;;;;4139873;28;20065;-73
2021/10/13 07:11:24;;;;;;;8.15;5.15;;;10.50;99.90;;;;;;4136172;28;20058;-73
2021/10/13 07:13:25;;;;;;;10.40;5.85;;;10.50;99.90;;;;;;4130103;28;20073;-74
2021/10/13 07:15:26;;;;;;;8.35;4.75;;;10.60;99.90;;;;;;4135607;28;20062;-74
2021/10/13 07:17:27;;;;;;;7.97;4.63;;;10.60;99.90;;;;;;4133561;28;20486;-73
2021/10/13 07:19:27;;;;;;;7.38;4.60;;;10.60;99.90;;;;;;4133480;28;20119;-73
2021/10/13 07:21:28;;;;;;;7.95;4.05;;;10.60;99.90;;;;;;4121046;28;20502;-73
2021/10/13 07:23:28;;;;;;;10.02;4.30;;;10.60;99.90;;;;;;4136398;28;20050;-74
2021/10/13 07:25:30;;;;;;;10.15;4.90;;;10.60;99.90;;;;;;4128499;28;20037;-74
2021/10/13 07:27:31;;;;;;;11.27;5.77;;;10.60;99.90;;;;;;4133352;28;20039;-74
2021/10/13 07:29:39;;;;;;;11.00;5.93;;;10.70;99.90;;;;;;4134608;28;20509;-74
2021/10/13 07:31:40;;;;;;;7.80;4.05;;;10.70;99.90;;;;;;4130654;28;20109;-74
2021/10/13 07:33:41;;;;;;;10.20;3.95;;;10.70;99.90;;;;;;4134106;28;20514;-73
2021/10/13 07:35:41;;;;;;;6.55;3.47;;;10.70;99.90;;;;;;4133434;28;20045;-74
2021/10/13 07:37:42;;;;;;;3.97;2.85;;;10.70;99.90;;;;;;4135684;28;20536;-74
2021/10/13 07:39:43;;;;;;;4.95;3.08;;;10.70;99.90;;;;;;4134868;28;20095;-74
2021/10/13 07:41:44;;;;;;;4.18;2.80;;;10.70;99.90;;;;;;4126973;28;20041;-74
2021/10/13 07:43:46;;;;;;;6.72;3.00;;;10.80;99.90;;;;;;4135230;28;20107;-74
2021/10/13 07:45:47;;;;;;;4.73;2.57;;;10.80;99.90;;;;;;4130686;28;20537;-74
2021/10/13 07:47:48;;;;;;;4.53;2.30;;;10.90;99.90;;;;;;4134009;28;20304;-74
2021/10/13 07:49:49;;;;;;;5.20;2.97;;;10.90;99.90;;;;;;4136477;28;20030;-74
2021/10/13 07:51:49;;;;;;;6.38;3.20;;;10.90;99.90;;;;;;4138849;28;20046;-74
2021/10/13 07:53:50;;;;;;;6.63;2.90;;;11.00;99.90;;;;;;4134728;28;20033;-73
2021/10/13 07:55:51;;;;;;;6.45;2.88;;;11.10;99.90;;;;;;4132920;28;20111;-74
2021/10/13 07:57:51;;;;;;;4.32;2.75;;;11.10;99.90;;;;;;4135034;28;20047;-74
2021/10/13 07:59:52;;;;;;;4.05;2.35;;;11.20;99.90;;;;;;4130152;28;20046;-74
2021/10/13 08:01:52;;;;;;;5.10;2.70;;;11.30;99.90;;;;;;4130862;28;20026;-74
2021/10/13 08:03:55;;;;;;;5.00;2.80;;;11.30;99.90;;;;;;4132104;28;20500;-74
2021/10/13 08:05:55;;;;;;;6.20;2.83;;;11.40;99.90;;;;;;4131541;28;20177;-74
2021/10/13 08:07:56;;;;;;;3.25;2.22;;;11.50;99.90;;;;;;4134193;28;20046;-74
2021/10/13 08:09:58;;;;;;;5.68;2.97;;;11.60;99.90;;;;;;4140509;28;20034;-74
2021/10/13 08:12:00;;;;;;;4.82;2.55;;;11.70;99.90;;;;;;4135230;28;20706;-74
2021/10/13 08:14:00;;;;;;;5.50;2.40;;;11.80;99.90;;;;;;4132290;28;20022;-74
2021/10/13 08:16:02;;;;;;;5.82;2.83;;;12.00;99.90;;;;;;4130525;28;20053;-75
2021/10/13 08:18:03;;;;;;;6.00;2.70;;;12.20;99.90;;;;;;4132099;28;20037;-74
2021/10/13 08:20:07;;;;;;;6.45;2.50;;;12.40;99.90;;;;;;4131830;28;20128;-74
2021/10/13 08:22:08;;;;;;;6.05;2.50;;;12.60;99.90;;;;;;4132746;28;20475;-74
2021/10/13 08:24:09;;;;;;;6.18;2.58;;;12.80;99.90;;;;;;4135791;28;20109;-74
2021/10/13 08:26:09;;;;;;;6.35;2.63;;;12.90;99.90;;;;;;4136029;28;20026;-74
2021/10/13 08:28:10;;;;;;;4.85;2.35;;;13.00;99.90;;;;;;4138107;28;20528;-74
2021/10/13 08:30:11;;;;;;;4.53;2.13;;;13.10;99.90;;;;;;4133124;28;20722;-74
2021/10/13 08:32:11;;;;;;;6.80;2.33;;;13.10;99.90;;;;;;4132952;28;20034;-74
2021/10/13 08:34:12;;;;;;;9.45;2.58;;;13.20;99.90;;;;;;4133862;28;20128;-74
2021/10/13 08:36:13;;;;;;;5.25;2.10;;;13.30;99.90;;;;;;4139668;28;20037;-74
2021/10/13 08:38:13;;;;;;;4.43;1.92;;;13.30;99.90;;;;;;4143090;28;20100;-74
2021/10/13 08:40:14;;;;;;;3.67;1.75;;;13.30;99.90;;;;;;4135058;28;21873;-75
2021/10/13 08:42:22;;;;;;;4.20;1.98;;;13.40;99.90;;;;;;4136580;28;20046;-74
2021/10/13 08:44:23;;;;;;;3.67;2.05;;;13.40;99.90;;;;;;4146653;28;20053;-75
2021/10/13 08:46:24;;;;;;;4.65;2.13;;;13.40;99.90;;;;;;4139567;28;20154;-74
2021/10/13 08:48:24;;;;;;;3.15;1.65;;;13.40;99.90;;;;;;4133912;28;20113;-74
2021/10/13 08:50:27;;;;;;;6.28;2.25;;;13.40;99.90;;;;;;4140411;28;20493;-74
2021/10/13 08:52:30;;;;;;;4.47;2.05;;;13.40;99.90;;;;;;4140928;28;20110;-74
2021/10/13 08:54:30;;;;;;;5.95;2.33;;;13.50;99.90;;;;;;4141190;28;20505;-74
2021/10/13 08:56:31;;;;;;;5.25;2.30;;;13.60;99.90;;;;;;4137680;28;20042;-74
2021/10/13 08:58:41;;;;;;;4.00;2.03;;;13.60;99.90;;;;;;4134730;28;20077;-74
2021/10/13 09:00:44;;;;;;;7.35;1.92;;;13.70;99.90;;;;;;4137700;28;20034;-74
2021/10/13 09:02:45;;;;;;;4.97;2.17;;;13.70;99.90;;;;;;4143497;28;20037;-75
2021/10/13 09:05:04;;;;;;;7.32;2.03;;;13.80;99.90;;;;;;4136120;28;20038;-74
2021/10/13 09:07:05;;;;;;;7.20;2.53;;;13.90;99.90;;;;;;4140587;28;20057;-74
2021/10/13 09:09:08;;;;;;;6.03;2.80;;;13.90;99.90;;;;;;4146501;28;20641;-75
2021/10/13 09:11:09;;;;;;;3.30;1.75;;;13.90;99.90;;;;;;4145770;28;20044;-75
2021/10/13 09:13:17;;;;;;;4.03;1.80;;;14.00;99.90;;;;;;4146910;28;20033;-75
2021/10/13 09:15:25;;;;;;;4.22;1.77;;;14.10;99.90;;;;;;4147608;28;20655;-75
2021/10/13 09:17:25;;;;;;;3.80;1.92;;;14.20;99.90;;;;;;4125111;28;20034;-75
2021/10/13 09:19:44;;;;;;;4.05;1.65;;;14.20;99.90;;;;;;4139600;28;20742;-75
2021/10/13 09:21:54;;;;;;;5.32;2.35;;;14.30;99.90;;;;;;4130121;28;20449;-75
2021/10/13 09:24:08;;;;;;;9.40;2.17;;;14.30;99.90;;;;;;4115622;28;20122;-75
2021/10/13 09:26:10;;;;;;;7.00;2.03;;;14.40;99.90;;;;;;4140961;28;20033;-75
2021/10/13 09:28:16;;;;;;;5.10;2.30;;;14.50;99.90;;;;;;4139138;28;20030;-75
2021/10/13 09:30:25;;;;;;;4.60;2.20;;;14.50;99.90;;;;;;4141241;28;20069;-75
2021/10/13 09:32:26;;;;;;;6.10;2.30;;;14.50;99.90;;;;;;4138555;28;20033;-74
2021/10/13 09:34:27;;;;;;;6.68;2.33;;;14.30;99.90;;;;;;4142775;28;20494;-75
2021/10/13 09:36:42;;;;;;;5.43;2.13;;;14.30;99.90;;;;;;4137597;28;20046;-75
2021/10/13 09:38:46;;;;;;;6.97;2.30;;;14.20;99.90;;;;;;4136207;28;20034;-74
2021/10/13 09:40:48;;;;;;;5.13;2.17;;;14.20;99.90;;;;;;4139713;28;20049;-75
2021/10/13 09:42:52;;;;;;;6.47;2.60;;;14.10;99.90;;;;;;4142717;28;20038;-74
2021/10/13 09:44:54;;;;;;;5.90;2.10;;;14.10;99.90;;;;;;4116801;28;20241;-74
2021/10/13 09:47:04;;;;;;;4.33;1.90;;;14.00;99.90;;;;;;4137552;28;20038;-74
2021/10/13 09:49:04;;;;;;;3.28;1.83;;;14.00;99.90;;;;;;4126458;28;20053;-74
2021/10/13 09:51:35;;;;;;;4.97;2.20;;;14.00;99.90;;;;;;4127683;28;20058;-74
2021/10/13 09:53:36;;;;;;;5.10;2.10;;;14.00;99.90;;;;;;4132899;28;20037;-74
2021/10/13 09:55:37;;;;;;;5.07;2.15;;;14.00;99.90;;;;;;4139747;28;20052;-74
2021/10/13 09:57:49;;;;;;;10.25;2.50;;;13.90;99.90;;;;;;4140445;28;20066;-74
2021/10/13 10:00:13;;;;;;;8.93;2.83;;;13.90;99.90;;;;;;4139285;28;20092;-74
2021/10/13 10:02:13;;;;;;;5.78;1.88;;;13.90;99.90;;;;;;4151166;28;20071;-74
2021/10/13 10:04:21;;;;;;;6.22;1.83;;;13.80;99.90;;;;;;4139278;28;20124;-75
2021/10/13 10:06:27;;;;;;;5.88;2.42;;;13.90;99.90;;;;;;4141966;28;20049;-74
2021/10/13 10:08:27;;;;;;;7.30;2.60;;;13.80;99.90;;;;;;4137142;28;20065;-74
2021/10/13 10:10:28;;;;;;;7.20;2.65;;;13.90;99.90;;;;;;4139692;28;20754;-74
2021/10/13 10:12:28;;;;;;;5.97;2.20;;;13.90;99.90;;;;;;4137502;28;20697;-74
2021/10/13 10:14:32;;;;;;;3.90;1.92;;;13.90;99.90;;;;;;4139695;28;20033;-74
2021/10/13 10:16:39;;;;;;;5.80;2.30;;;14.00;99.90;;;;;;4134797;28;20823;-74
2021/10/13 10:18:41;;;;;;;5.60;2.42;;;14.00;99.90;;;;;;4138358;28;20126;-74
2021/10/13 10:20:41;;;;;;;3.28;2.20;;;14.10;99.90;;;;;;4135466;28;20083;-74
2021/10/13 10:22:46;;;;;;;4.32;2.22;;;14.10;99.90;;;;;;4135868;28;20069;-74
2021/10/13 10:24:47;;;;;;;6.45;2.28;;;14.20;99.90;;;;;;4136731;28;20045;-74
2021/10/13 10:26:47;;;;;;;5.13;1.73;;;14.20;99.90;;;;;;4137162;28;20037;-74
2021/10/13 10:28:51;;;;;;;5.93;1.98;;;14.30;99.90;;;;;;4133809;28;20030;-75
2021/10/13 10:31:30;;;;;;;7.68;2.20;;;14.40;99.90;;;;;;4134732;28;20124;-74
2021/10/13 10:33:32;;;;;;;6.03;2.50;;;14.40;99.90;;;;;;4136721;28;20026;-74
2021/10/13 10:35:43;;;;;;;3.75;2.03;;;14.40;99.90;;;;;;4133863;28;20574;-74
2021/10/13 10:37:46;;;;;;;5.55;1.95;;;14.40;99.90;;;;;;4131470;28;20034;-74
2021/10/13 10:39:56;;;;;;;4.82;2.20;;;14.50;99.90;;;;;;4137229;28;20095;-74
2021/10/13 10:41:56;;;;;;;4.57;2.10;;;14.50;99.90;;;;;;4134216;28;20038;-74